createdAt,value
2022-08-28T00:00:17.472Z,18.30
2022-08-28T00:02:46.620Z,15.30
2022-08-28T00:05:16.009Z,18.35
2022-08-28T00:07:47.514Z,16.15
2022-08-28T00:10:17.232Z,15.25
2022-08-28T00:12:47.016Z,19.60
2022-08-28T00:15:20.621Z,16.48
2022-08-28T00:17:49.570Z,22.50
2022-08-28T00:20:18.998Z,14.75
2022-08-28T00:22:48.607Z,15.57
2022-08-28T00:25:19.307Z,16.23
2022-08-28T00:27:55.597Z,14.65
2022-08-28T00:30:44.221Z,14.82
2022-08-28T00:33:19.856Z,19.80
2022-08-28T00:35:51.721Z,18.15
2022-08-28T00:38:21.076Z,21.13
2022-08-28T00:40:52.651Z,17.30
2022-08-28T00:43:47.866Z,21.20
2022-08-28T00:46:20.362Z,15.13
2022-08-28T00:48:48.424Z,23.20
2022-08-28T00:51:36.817Z,19.15
2022-08-28T00:54:07.745Z,24.17
2022-08-28T00:56:36.376Z,17.90
2022-08-28T00:59:12.048Z,22.85
2022-08-28T01:01:39.478Z,14.98
2022-08-28T01:04:06.995Z,16.98
2022-08-28T01:06:35.871Z,22.02
2022-08-28T01:09:04.259Z,15.23
2022-08-28T01:11:32.619Z,18.05
2022-08-28T01:14:03.207Z,18.15
2022-08-28T01:16:33.861Z,19.60
2022-08-28T01:19:04.385Z,13.30
2022-08-28T01:21:47.155Z,16.58
2022-08-28T01:24:17.462Z,16.85
2022-08-28T01:26:44.959Z,18.85
2022-08-28T01:29:13.242Z,16.85
2022-08-28T01:31:41.093Z,18.98
2022-08-28T01:34:12.420Z,18.77
2022-08-28T01:36:40.493Z,17.83
2022-08-28T01:39:21.395Z,15.77
2022-08-28T01:41:52.111Z,22.00
2022-08-28T01:44:24.779Z,19.83
2022-08-28T01:46:58.278Z,17.58
2022-08-28T01:49:29.451Z,15.45
2022-08-28T01:51:58.096Z,15.23
2022-08-28T01:54:26.441Z,21.15
2022-08-28T01:56:55.093Z,15.15
2022-08-28T01:59:23.152Z,20.05
2022-08-28T02:01:50.183Z,16.48
2022-08-28T02:04:17.431Z,17.70
2022-08-28T02:06:44.538Z,18.00
2022-08-28T02:09:14.566Z,15.48
2022-08-28T02:11:46.349Z,18.83
2022-08-28T02:14:14.127Z,16.65
2022-08-28T02:16:41.116Z,15.85
2022-08-28T02:19:08.526Z,18.75
2022-08-28T02:21:35.646Z,15.60
2022-08-28T02:24:03.265Z,18.40
2022-08-28T02:26:31.783Z,14.77
2022-08-28T02:28:59.522Z,16.00
2022-08-28T02:31:27.549Z,14.27
2022-08-28T02:33:55.590Z,15.73
2022-08-28T02:36:23.445Z,16.63
2022-08-28T02:38:57.346Z,15.05
2022-08-28T02:41:25.659Z,17.73
2022-08-28T02:43:53.295Z,19.60
2022-08-28T02:46:20.445Z,14.35
2022-08-28T02:48:47.466Z,13.98
2022-08-28T02:51:14.951Z,16.17
2022-08-28T02:53:43.193Z,13.40
2022-08-28T02:56:10.941Z,15.13
2022-08-28T02:58:39.622Z,16.23
2022-08-28T03:01:11.315Z,16.20
2022-08-28T03:03:40.925Z,12.48
2022-08-28T03:06:12.521Z,13.68
2022-08-28T03:08:42.090Z,14.30
2022-08-28T03:11:09.865Z,14.88
2022-08-28T03:13:36.921Z,16.90
2022-08-28T03:16:05.029Z,15.90
2022-08-28T03:18:33.130Z,18.70
2022-08-28T03:21:00.874Z,16.63
2022-08-28T03:23:28.017Z,12.23
2022-08-28T03:25:58.065Z,16.30
2022-08-28T03:28:31.798Z,17.17
2022-08-28T03:30:59.193Z,13.85
2022-08-28T03:33:26.842Z,15.07
2022-08-28T03:35:55.598Z,15.32
2022-08-28T03:38:23.021Z,13.50
2022-08-28T03:40:53.444Z,15.18
2022-08-28T03:43:24.415Z,15.73
2022-08-28T03:46:01.279Z,14.18
2022-08-28T03:48:34.729Z,14.23
2022-08-28T03:51:02.318Z,13.02
2022-08-28T03:53:30.237Z,19.27
2022-08-28T03:55:58.080Z,13.07
2022-08-28T03:58:26.797Z,15.05
2022-08-28T04:00:54.460Z,13.90
2022-08-28T04:03:21.648Z,13.52
2022-08-28T04:05:48.765Z,13.30
2022-08-28T04:08:18.390Z,15.30
2022-08-28T04:10:47.198Z,16.35
2022-08-28T04:13:16.838Z,12.68
2022-08-28T04:15:44.096Z,12.15
2022-08-28T04:18:12.217Z,14.95
2022-08-28T04:20:40.100Z,14.68
2022-08-28T04:23:09.921Z,16.05
2022-08-28T04:25:40.789Z,17.83
2022-08-28T04:28:07.926Z,14.30
2022-08-28T04:30:35.044Z,18.52
2022-08-28T04:33:02.373Z,12.68
2022-08-28T04:35:29.425Z,14.60
2022-08-28T04:37:58.817Z,13.35
2022-08-28T04:40:26.119Z,11.57
2022-08-28T04:42:53.198Z,14.07
2022-08-28T04:45:20.181Z,11.98
2022-08-28T04:47:47.181Z,12.73
2022-08-28T04:50:15.240Z,16.23
2022-08-28T04:52:43.463Z,18.67
2022-08-28T04:55:10.900Z,15.60
2022-08-28T04:57:37.894Z,14.52
2022-08-28T05:00:07.114Z,13.75
2022-08-28T05:02:34.127Z,14.30
2022-08-28T05:05:01.224Z,16.98
2022-08-28T05:07:29.373Z,14.20
2022-08-28T05:09:57.138Z,14.65
2022-08-28T05:12:24.701Z,16.48
2022-08-28T05:14:51.681Z,10.65
2022-08-28T05:17:18.699Z,12.60
2022-08-28T05:19:45.781Z,13.40
2022-08-28T05:22:12.769Z,15.48
2022-08-28T05:24:40.183Z,12.43
2022-08-28T05:27:09.131Z,12.50
2022-08-28T05:29:36.518Z,16.63
2022-08-28T05:32:04.807Z,12.73
2022-08-28T05:34:31.892Z,9.30
2022-08-28T05:36:59.406Z,12.02
2022-08-28T05:39:26.422Z,17.13
2022-08-28T05:41:53.753Z,13.43
2022-08-28T05:44:20.999Z,15.02
2022-08-28T05:46:48.615Z,13.32
2022-08-28T05:49:18.226Z,13.95
2022-08-28T05:51:46.173Z,15.00
2022-08-28T05:54:15.599Z,12.00
2022-08-28T05:56:45.157Z,15.23
2022-08-28T05:59:14.264Z,14.30
2022-08-28T06:01:47.792Z,15.15
2022-08-28T06:04:23.363Z,14.25
2022-08-28T06:06:50.678Z,14.05
2022-08-28T06:09:29.930Z,17.27
2022-08-28T06:11:59.832Z,12.90
2022-08-28T06:14:27.689Z,12.95
2022-08-28T06:16:57.194Z,14.95
2022-08-28T06:19:27.003Z,16.33
2022-08-28T06:22:00.893Z,17.08
2022-08-28T06:24:29.379Z,18.73
2022-08-28T06:26:58.695Z,14.52
2022-08-28T06:29:27.799Z,19.13
2022-08-28T06:31:58.964Z,17.88
2022-08-28T06:34:27.253Z,25.10
2022-08-28T06:36:55.440Z,20.85
2022-08-28T06:39:23.574Z,15.60
2022-08-28T06:41:50.617Z,21.65
2022-08-28T06:44:20.809Z,14.13
2022-08-28T06:46:53.987Z,12.65
2022-08-28T06:49:21.937Z,14.00
2022-08-28T06:51:49.238Z,12.43
2022-08-28T06:54:22.226Z,13.88
2022-08-28T06:56:51.850Z,14.65
2022-08-28T06:59:18.880Z,13.23
2022-08-28T07:01:45.966Z,14.52
2022-08-28T07:04:16.063Z,11.63
2022-08-28T07:06:53.764Z,15.02
2022-08-28T07:09:23.861Z,11.60
2022-08-28T07:11:51.350Z,14.77
2022-08-28T07:14:18.598Z,14.40
2022-08-28T07:16:46.026Z,14.82
2022-08-28T07:19:13.721Z,12.55
2022-08-28T07:21:43.976Z,14.38
2022-08-28T07:24:13.668Z,16.65
2022-08-28T07:26:43.504Z,13.50
2022-08-28T07:29:12.034Z,17.02
2022-08-28T07:31:43.949Z,15.05
2022-08-28T07:34:12.637Z,12.98
2022-08-28T07:36:40.522Z,12.43
2022-08-28T07:39:08.734Z,14.10
2022-08-28T07:41:39.314Z,13.90
2022-08-28T07:44:26.431Z,10.23
2022-08-28T07:46:55.888Z,13.70
2022-08-28T07:49:24.091Z,13.20
2022-08-28T07:51:54.054Z,11.38
2022-08-28T07:54:23.264Z,12.85
2022-08-28T07:56:51.476Z,9.55
2022-08-28T07:59:19.626Z,15.80
2022-08-28T08:01:48.778Z,11.38
2022-08-28T08:04:17.523Z,12.45
2022-08-28T08:06:45.259Z,10.80
2022-08-28T08:09:16.065Z,10.68
2022-08-28T08:11:43.885Z,14.37
2022-08-28T08:14:11.993Z,12.27
2022-08-28T08:16:43.399Z,11.23
2022-08-28T08:19:14.092Z,14.50
2022-08-28T08:21:48.432Z,11.88
2022-08-28T08:24:26.831Z,14.95
2022-08-28T08:29:32.359Z,12.32
2022-08-28T08:32:07.876Z,14.63
2022-08-28T08:34:41.424Z,12.68
2022-08-28T08:37:09.152Z,13.27
2022-08-28T08:39:37.317Z,11.45
2022-08-28T08:42:20.178Z,11.05
2022-08-28T08:44:48.767Z,11.43
2022-08-28T08:47:32.774Z,10.48
2022-08-28T08:50:05.900Z,10.40
2022-08-28T08:52:52.907Z,12.35
2022-08-28T08:55:24.587Z,9.20
2022-08-28T09:01:22.180Z,9.40
2022-08-28T09:03:49.240Z,16.10
2022-08-28T09:06:29.813Z,12.53
2022-08-28T09:09:03.025Z,10.55
2022-08-28T09:11:56.563Z,6.78
2022-08-28T09:14:57.597Z,10.90
2022-08-28T09:17:33.892Z,10.82
2022-08-28T09:20:01.240Z,13.85
2022-08-28T09:22:28.235Z,9.85
2022-08-28T09:24:55.433Z,16.67
2022-08-28T09:27:27.935Z,9.68
2022-08-28T09:30:08.065Z,10.32
2022-08-28T09:32:45.726Z,12.13
2022-08-28T09:35:27.144Z,9.45
2022-08-28T09:37:54.668Z,8.15
2022-08-28T09:40:50.058Z,15.23
2022-08-28T09:43:27.688Z,9.18
2022-08-28T09:46:21.437Z,8.23
2022-08-28T09:48:52.357Z,15.18
2022-08-28T09:51:22.305Z,10.93
2022-08-28T09:53:52.287Z,12.25
2022-08-28T09:56:25.923Z,10.50
2022-08-28T09:59:00.114Z,10.68
2022-08-28T10:01:43.396Z,10.93
2022-08-28T10:04:37.070Z,9.30
2022-08-28T10:07:18.484Z,12.02
2022-08-28T10:10:32.592Z,9.70
2022-08-28T10:13:31.275Z,10.38
2022-08-28T10:16:56.868Z,11.65
2022-08-28T10:19:41.262Z,11.77
2022-08-28T10:22:25.459Z,7.15
2022-08-28T10:25:07.407Z,8.05
2022-08-28T10:28:19.392Z,7.30
2022-08-28T10:33:41.048Z,8.45
2022-08-28T10:36:33.488Z,7.70
2022-08-28T10:39:22.785Z,8.57
2022-08-28T10:42:01.998Z,6.72
2022-08-28T10:44:49.565Z,11.15
2022-08-28T10:47:20.238Z,7.97
2022-08-28T10:49:53.565Z,7.03
2022-08-28T10:55:23.097Z,8.15
2022-08-28T10:58:24.269Z,8.85
2022-08-28T11:01:06.373Z,8.02
2022-08-28T11:03:47.004Z,7.05
2022-08-28T11:06:27.390Z,11.93
2022-08-28T11:08:59.368Z,6.85
2022-08-28T11:11:46.687Z,8.85
2022-08-28T11:14:48.372Z,8.82
2022-08-28T11:17:25.401Z,7.20
2022-08-28T11:20:22.768Z,7.45
2022-08-28T11:23:07.829Z,8.57
2022-08-28T11:25:57.621Z,5.63
2022-08-28T11:28:25.870Z,6.45
2022-08-28T11:30:58.938Z,7.97
2022-08-28T11:33:49.839Z,4.75
2022-08-28T11:36:19.839Z,7.07
2022-08-28T11:38:53.118Z,3.78
2022-08-28T11:41:22.561Z,11.07
2022-08-28T11:44:09.227Z,10.30
2022-08-28T11:46:41.246Z,5.60
2022-08-28T11:49:26.588Z,5.25
2022-08-28T11:52:34.301Z,5.75
2022-08-28T11:55:29.808Z,6.88
2022-08-28T11:58:16.187Z,6.72
2022-08-28T12:01:01.613Z,7.70
2022-08-28T12:03:59.170Z,5.45
2022-08-28T12:06:45.307Z,12.77
2022-08-28T12:09:39.142Z,5.82
2022-08-28T12:12:20.904Z,5.25
2022-08-28T12:14:47.814Z,6.78
2022-08-28T12:17:31.148Z,5.03
2022-08-28T12:20:10.633Z,7.93
2022-08-28T12:23:01.050Z,4.95
2022-08-28T12:26:00.826Z,6.50
2022-08-28T12:28:55.518Z,6.40
2022-08-28T12:31:55.983Z,7.18
2022-08-28T12:34:31.543Z,4.88
2022-08-28T12:37:03.390Z,11.10
2022-08-28T12:39:33.398Z,5.95
2022-08-28T12:42:03.735Z,4.57
2022-08-28T12:44:33.338Z,9.32
2022-08-28T12:47:00.702Z,4.20
2022-08-28T12:49:37.054Z,4.15
2022-08-28T12:52:21.312Z,5.75
2022-08-28T12:54:51.566Z,4.72
2022-08-28T12:57:22.556Z,6.07
2022-08-28T12:59:55.534Z,5.13
2022-08-28T13:02:33.664Z,8.35
2022-08-28T13:05:07.856Z,8.52
2022-08-28T13:07:45.034Z,4.25
2022-08-28T13:10:39.255Z,8.18
2022-08-28T13:13:19.598Z,6.85
2022-08-28T13:15:57.913Z,6.63
2022-08-28T13:18:43.117Z,7.03
2022-08-28T13:21:31.718Z,8.75
2022-08-28T13:24:23.773Z,6.78
2022-08-28T13:27:24.171Z,7.72
2022-08-28T13:29:59.862Z,5.75
2022-08-28T13:32:31.683Z,9.73
2022-08-28T13:35:21.954Z,5.00
2022-08-28T13:37:51.550Z,4.63
2022-08-28T13:40:55.796Z,5.50
2022-08-28T13:43:13.738Z,9.07
2022-08-28T13:45:45.196Z,6.00
2022-08-28T13:48:26.655Z,5.18
2022-08-28T13:53:27.334Z,4.80
2022-08-28T13:55:54.530Z,4.03
2022-08-28T13:58:21.517Z,5.93
2022-08-28T14:00:51.894Z,5.75
2022-08-28T14:03:38.811Z,2.80
2022-08-28T14:06:12.261Z,6.88
2022-08-28T14:08:45.089Z,4.10
2022-08-28T14:11:15.078Z,4.10
2022-08-28T14:13:47.028Z,6.28
2022-08-28T14:16:23.553Z,4.90
2022-08-28T14:18:53.163Z,4.25
2022-08-28T14:21:21.431Z,4.60
2022-08-28T14:23:48.442Z,5.50
2022-08-28T14:26:15.435Z,7.82
2022-08-28T14:28:42.908Z,6.95
2022-08-28T14:31:14.250Z,5.88
2022-08-28T14:33:45.264Z,6.97
2022-08-28T14:36:21.218Z,5.65
2022-08-28T14:38:53.690Z,3.22
2022-08-28T14:41:23.565Z,7.55
2022-08-28T14:43:51.525Z,5.13
2022-08-28T14:46:34.396Z,5.40
2022-08-28T14:49:08.418Z,3.50
2022-08-28T14:51:38.876Z,7.68
2022-08-28T14:54:07.562Z,4.23
2022-08-28T14:56:35.691Z,4.13
2022-08-28T14:59:06.023Z,4.82
2022-08-28T15:01:40.915Z,3.60
2022-08-28T15:04:13.382Z,7.00
2022-08-28T15:06:42.602Z,7.25
2022-08-28T15:09:15.034Z,4.43
2022-08-28T15:11:43.745Z,6.05
2022-08-28T15:14:11.735Z,4.10
2022-08-28T15:16:42.984Z,4.60
2022-08-28T15:19:12.351Z,6.72
2022-08-28T15:21:54.402Z,4.60
2022-08-28T15:24:26.563Z,3.90
2022-08-28T15:26:53.918Z,5.20
2022-08-28T15:29:21.259Z,4.72
2022-08-28T15:31:50.508Z,4.65
2022-08-28T15:34:28.656Z,5.13
2022-08-28T15:36:57.269Z,3.30
2022-08-28T15:39:47.804Z,3.92
2022-08-28T15:42:15.734Z,2.47
2022-08-28T15:44:43.054Z,5.30
2022-08-28T15:47:10.690Z,5.57
2022-08-28T15:49:43.486Z,4.47
2022-08-28T15:52:18.492Z,6.28
2022-08-28T15:54:45.512Z,4.15
2022-08-28T15:57:12.523Z,3.15
2022-08-28T15:59:50.023Z,4.50
2022-08-28T16:02:23.881Z,4.15
2022-08-28T16:04:53.310Z,4.25
2022-08-28T16:07:22.405Z,5.38
2022-08-28T16:09:50.342Z,4.22
2022-08-28T16:12:18.235Z,3.97
2022-08-28T16:14:45.261Z,5.95
2022-08-28T16:17:12.514Z,6.00
2022-08-28T16:19:40.428Z,4.72
2022-08-28T16:22:09.281Z,4.72
2022-08-28T16:24:37.189Z,3.22
2022-08-28T16:27:06.411Z,4.70
2022-08-28T16:29:36.735Z,8.32
2022-08-28T16:32:05.458Z,4.55
2022-08-28T16:34:33.895Z,5.50
2022-08-28T16:37:01.391Z,3.95
2022-08-28T16:39:29.098Z,5.32
2022-08-28T16:41:56.177Z,4.82
2022-08-28T16:44:26.614Z,5.50
2022-08-28T16:46:55.437Z,3.73
2022-08-28T16:49:23.612Z,5.40
2022-08-28T16:51:51.046Z,3.65
2022-08-28T16:54:18.507Z,4.22
2022-08-28T16:56:46.158Z,8.80
2022-08-28T16:59:17.401Z,6.13
2022-08-28T17:04:12.299Z,2.97
2022-08-28T17:06:40.097Z,3.47
2022-08-28T17:09:07.240Z,3.88
2022-08-28T17:11:34.301Z,5.18
2022-08-28T17:14:02.039Z,4.60
2022-08-28T17:16:32.809Z,4.30
2022-08-28T17:19:00.028Z,10.10
2022-08-28T17:21:45.317Z,6.10
2022-08-28T17:24:13.174Z,6.65
2022-08-28T17:26:41.721Z,6.13
2022-08-28T17:29:08.793Z,4.53
2022-08-28T17:31:36.183Z,8.25
2022-08-28T17:34:03.612Z,5.70
2022-08-28T17:36:33.242Z,5.55
2022-08-28T17:39:12.010Z,3.47
2022-08-28T17:41:41.626Z,4.10
2022-08-28T17:44:09.205Z,4.20
2022-08-28T17:46:38.068Z,3.90
2022-08-28T17:49:07.591Z,2.67
2022-08-28T17:51:43.544Z,5.15
2022-08-28T17:54:13.930Z,4.70
2022-08-28T17:56:41.769Z,4.55
2022-08-28T17:59:10.064Z,3.97
2022-08-28T18:01:38.450Z,3.22
2022-08-28T18:04:05.801Z,4.47
2022-08-28T18:06:33.028Z,6.10
2022-08-28T18:09:00.533Z,3.13
2022-08-28T18:11:28.537Z,4.00
2022-08-28T18:13:55.756Z,3.22
2022-08-28T18:16:26.480Z,4.13
2022-08-28T18:18:57.089Z,3.03
2022-08-28T18:21:24.480Z,5.13
2022-08-28T18:23:51.628Z,7.80
2022-08-28T18:26:18.747Z,4.95
2022-08-28T18:28:46.260Z,5.10
2022-08-28T18:31:13.666Z,9.25
2022-08-28T18:33:40.774Z,4.50
2022-08-28T18:36:10.688Z,4.60
2022-08-28T18:38:38.234Z,8.18
2022-08-28T18:41:07.192Z,2.45
2022-08-28T18:43:34.872Z,3.30
2022-08-28T18:46:03.966Z,3.85
2022-08-28T18:48:31.914Z,3.60
2022-08-28T18:50:58.990Z,5.75
2022-08-28T18:53:26.533Z,5.28
2022-08-28T18:55:55.107Z,3.63
2022-08-28T18:58:23.391Z,2.92
2022-08-28T19:00:51.257Z,7.18
2022-08-28T19:03:18.734Z,6.88
2022-08-28T19:05:46.181Z,8.73
2022-08-28T19:08:14.290Z,3.85
2022-08-28T19:10:41.871Z,3.85
2022-08-28T19:13:09.102Z,4.30
2022-08-28T19:15:37.245Z,10.07
2022-08-28T19:18:05.544Z,5.80
2022-08-28T19:20:33.401Z,3.75
2022-08-28T19:23:00.884Z,2.60
2022-08-28T19:25:30.578Z,5.78
2022-08-28T19:27:59.883Z,3.95
2022-08-28T19:30:31.150Z,3.22
2022-08-28T19:32:59.033Z,7.90
2022-08-28T19:35:26.349Z,4.72
2022-08-28T19:37:54.070Z,3.75
2022-08-28T19:40:22.041Z,4.28
2022-08-28T19:42:50.131Z,5.78
2022-08-28T19:45:18.275Z,5.82
2022-08-28T19:47:46.896Z,4.60
2022-08-28T19:50:15.097Z,4.18
2022-08-28T19:52:43.651Z,3.00
2022-08-28T19:55:19.251Z,5.85
2022-08-28T19:57:48.384Z,5.47
2022-08-28T20:00:22.728Z,6.70
2022-08-28T20:02:52.251Z,3.85
2022-08-28T20:05:21.314Z,3.40
2022-08-28T20:07:49.140Z,6.40
2022-08-28T20:10:16.861Z,3.88
2022-08-28T20:12:48.361Z,3.55
2022-08-28T20:15:18.239Z,3.85
2022-08-28T20:17:49.491Z,5.57
2022-08-28T20:20:20.660Z,3.55
2022-08-28T20:22:47.946Z,4.43
2022-08-28T20:25:15.707Z,6.40
2022-08-28T20:27:42.718Z,4.40
2022-08-28T20:30:11.522Z,6.00
2022-08-28T20:32:40.866Z,5.18
2022-08-28T20:35:10.693Z,4.30
2022-08-28T20:37:45.382Z,4.70
2022-08-28T20:40:17.161Z,9.57
2022-08-28T20:42:45.159Z,5.40
2022-08-28T20:45:15.270Z,6.78
2022-08-28T20:47:42.739Z,4.05
2022-08-28T20:50:11.175Z,3.55
2022-08-28T20:52:39.200Z,3.30
2022-08-28T20:55:08.193Z,3.38
2022-08-28T20:57:35.970Z,4.07
2022-08-28T21:00:08.366Z,4.60
2022-08-28T21:02:35.590Z,5.18
2022-08-28T21:05:02.914Z,5.07
2022-08-28T21:07:30.257Z,3.75
2022-08-28T21:10:04.124Z,3.55
2022-08-28T21:12:36.761Z,5.47
2022-08-28T21:15:06.581Z,4.38
2022-08-28T21:17:33.895Z,6.43
2022-08-28T21:20:05.979Z,4.75
2022-08-28T21:22:35.389Z,3.22
2022-08-28T21:25:05.672Z,6.55
2022-08-28T21:27:32.874Z,5.47
2022-08-28T21:30:00.832Z,6.95
2022-08-28T21:32:29.451Z,5.50
2022-08-28T21:34:57.281Z,6.82
2022-08-28T21:37:24.414Z,3.97
2022-08-28T21:39:52.108Z,4.40
2022-08-28T21:42:21.042Z,4.63
2022-08-28T21:44:51.941Z,4.78
2022-08-28T21:47:22.928Z,3.33
2022-08-28T21:49:52.706Z,3.92
2022-08-28T21:52:22.030Z,5.00
2022-08-28T21:54:49.374Z,4.57
2022-08-28T21:57:17.772Z,4.65
2022-08-28T21:59:44.851Z,3.80
2022-08-28T22:02:12.007Z,6.93
2022-08-28T22:04:39.117Z,2.53
2022-08-28T22:07:06.644Z,2.60
2022-08-28T22:09:33.730Z,6.40
2022-08-28T22:12:01.351Z,3.10
2022-08-28T22:14:28.523Z,4.43
2022-08-28T22:16:56.079Z,3.22
2022-08-28T22:19:23.224Z,4.28
2022-08-28T22:22:09.102Z,3.10
2022-08-28T22:24:37.583Z,6.07
2022-08-28T22:27:06.009Z,4.00
2022-08-28T22:29:36.544Z,8.68
2022-08-28T22:32:06.063Z,3.70
2022-08-28T22:34:42.235Z,4.05
2022-08-28T22:37:11.537Z,7.35
2022-08-28T22:39:40.411Z,9.90
2022-08-28T22:42:08.312Z,4.57
2022-08-28T22:44:36.000Z,3.78
2022-08-28T22:47:03.550Z,4.68
2022-08-28T22:49:30.811Z,4.45
2022-08-28T22:51:58.353Z,6.22
2022-08-28T22:54:27.721Z,7.75
2022-08-28T22:56:54.711Z,5.97
2022-08-28T22:59:22.209Z,3.65
2022-08-28T23:01:49.356Z,4.28
2022-08-28T23:04:16.464Z,5.35
2022-08-28T23:06:43.681Z,6.38
2022-08-28T23:09:11.146Z,4.80
2022-08-28T23:11:38.453Z,4.57
2022-08-28T23:14:05.995Z,6.13
2022-08-28T23:16:35.195Z,3.08
2022-08-28T23:19:08.901Z,4.28
2022-08-28T23:21:40.752Z,4.05
2022-08-28T23:24:11.847Z,8.70
2022-08-28T23:26:38.834Z,8.40
2022-08-28T23:29:05.886Z,3.35
2022-08-28T23:31:33.029Z,7.22
2022-08-28T23:34:00.413Z,5.07
2022-08-28T23:36:27.520Z,5.93
2022-08-28T23:38:55.053Z,5.13
2022-08-28T23:41:22.103Z,5.80
2022-08-28T23:43:49.611Z,3.83
2022-08-28T23:46:18.333Z,4.32
2022-08-28T23:48:45.946Z,2.78
2022-08-28T23:51:16.998Z,5.47
2022-08-28T23:53:45.349Z,4.30
2022-08-28T23:56:12.833Z,2.92
2022-08-28T23:58:43.262Z,5.13
